sensor_id;sensor_type;location;lat;lon;timestamp;P1;durP1;ratioP1;P2;durP2;ratioP2
59786;SDS011;45672;51.612;5.536;2024-02-28T00:01:22;34.72;;;19.65;;
59786;SDS011;45672;51.612;5.536;2024-02-28T00:03:47;34.88;;;19.92;;
59786;SDS011;45672;51.612;5.536;2024-02-28T00:06:15;36.22;;;20.42;;
59786;SDS011;45672;51.612;5.536;2024-02-28T00:08:41;34.22;;;19.65;;
59786;SDS011;45672;51.612;5.536;2024-02-28T00:11:06;35.33;;;20.65;;
59786;SDS011;45672;51.612;5.536;2024-02-28T00:13:32;35.30;;;19.73;;
59786;SDS011;45672;51.612;5.536;2024-02-28T00:15:57;37.35;;;21.52;;
59786;SDS011;45672;51.612;5.536;2024-02-28T00:18:22;36.15;;;20.75;;
59786;SDS011;45672;51.612;5.536;2024-02-28T00:20:48;38.92;;;21.10;;
59786;SDS011;45672;51.612;5.536;2024-02-28T00:23:14;36.17;;;20.77;;
59786;SDS011;45672;51.612;5.536;2024-02-28T00:25:39;37.85;;;21.35;;
59786;SDS011;45672;51.612;5.536;2024-02-28T00:28:05;38.70;;;20.17;;
59786;SDS011;45672;51.612;5.536;2024-02-28T00:30:30;37.65;;;21.83;;
59786;SDS011;45672;51.612;5.536;2024-02-28T00:32:57;38.17;;;20.58;;
59786;SDS011;45672;51.612;5.536;2024-02-28T00:35:22;38.45;;;21.17;;
59786;SDS011;45672;51.612;5.536;2024-02-28T00:37:47;38.30;;;21.38;;
59786;SDS011;45672;51.612;5.536;2024-02-28T00:40:12;37.42;;;20.63;;
59786;SDS011;45672;51.612;5.536;2024-02-28T00:42:38;36.65;;;19.98;;
59786;SDS011;45672;51.612;5.536;2024-02-28T00:45:03;40.97;;;21.75;;
59786;SDS011;45672;51.612;5.536;2024-02-28T00:47:29;38.60;;;21.40;;
59786;SDS011;45672;51.612;5.536;2024-02-28T00:49:54;37.13;;;22.08;;
59786;SDS011;45672;51.612;5.536;2024-02-28T00:52:19;39.65;;;21.35;;
59786;SDS011;45672;51.612;5.536;2024-02-28T00:54:45;35.50;;;20.63;;
59786;SDS011;45672;51.612;5.536;2024-02-28T00:57:10;35.10;;;20.05;;
59786;SDS011;45672;51.612;5.536;2024-02-28T00:59:35;35.45;;;20.88;;
59786;SDS011;45672;51.612;5.536;2024-02-28T01:02:00;37.20;;;21.45;;
59786;SDS011;45672;51.612;5.536;2024-02-28T01:04:26;39.53;;;21.15;;
59786;SDS011;45672;51.612;5.536;2024-02-28T01:06:51;36.38;;;21.67;;
59786;SDS011;45672;51.612;5.536;2024-02-28T01:09:16;35.90;;;20.45;;
59786;SDS011;45672;51.612;5.536;2024-02-28T01:11:42;37.75;;;21.48;;
59786;SDS011;45672;51.612;5.536;2024-02-28T01:14:07;38.92;;;21.42;;
59786;SDS011;45672;51.612;5.536;2024-02-28T01:16:32;39.95;;;21.98;;
59786;SDS011;45672;51.612;5.536;2024-02-28T01:18:58;34.92;;;20.55;;
59786;SDS011;45672;51.612;5.536;2024-02-28T01:21:23;39.20;;;21.95;;
59786;SDS011;45672;51.612;5.536;2024-02-28T01:23:49;38.30;;;21.70;;
59786;SDS011;45672;51.612;5.536;2024-02-28T01:26:14;40.72;;;22.10;;
59786;SDS011;45672;51.612;5.536;2024-02-28T01:28:40;38.90;;;22.55;;
59786;SDS011;45672;51.612;5.536;2024-02-28T01:31:07;39.78;;;22.27;;
59786;SDS011;45672;51.612;5.536;2024-02-28T01:33:33;40.78;;;22.33;;
59786;SDS011;45672;51.612;5.536;2024-02-28T01:35:58;35.80;;;21.27;;
59786;SDS011;45672;51.612;5.536;2024-02-28T01:38:23;37.00;;;21.77;;
59786;SDS011;45672;51.612;5.536;2024-02-28T01:40:49;38.20;;;21.38;;
59786;SDS011;45672;51.612;5.536;2024-02-28T01:43:14;42.45;;;23.02;;
59786;SDS011;45672;51.612;5.536;2024-02-28T01:45:39;37.33;;;21.23;;
59786;SDS011;45672;51.612;5.536;2024-02-28T01:48:09;37.97;;;21.50;;
59786;SDS011;45672;51.612;5.536;2024-02-28T01:50:35;40.38;;;21.02;;
59786;SDS011;45672;51.612;5.536;2024-02-28T01:53:02;38.67;;;21.30;;
59786;SDS011;45672;51.612;5.536;2024-02-28T01:55:28;39.33;;;21.50;;
59786;SDS011;45672;51.612;5.536;2024-02-28T01:57:54;37.53;;;21.55;;
59786;SDS011;45672;51.612;5.536;2024-02-28T02:00:21;37.33;;;21.45;;
59786;SDS011;45672;51.612;5.536;2024-02-28T02:02:48;35.13;;;21.33;;
59786;SDS011;45672;51.612;5.536;2024-02-28T02:05:13;39.20;;;21.38;;
59786;SDS011;45672;51.612;5.536;2024-02-28T02:07:41;37.85;;;22.17;;
59786;SDS011;45672;51.612;5.536;2024-02-28T02:10:06;39.13;;;22.75;;
59786;SDS011;45672;51.612;5.536;2024-02-28T02:12:35;39.13;;;20.67;;
59786;SDS011;45672;51.612;5.536;2024-02-28T02:15:00;36.88;;;20.65;;
59786;SDS011;45672;51.612;5.536;2024-02-28T02:17:26;39.72;;;20.88;;
59786;SDS011;45672;51.612;5.536;2024-02-28T02:19:51;37.50;;;21.65;;
59786;SDS011;45672;51.612;5.536;2024-02-28T02:22:16;36.78;;;22.50;;
59786;SDS011;45672;51.612;5.536;2024-02-28T02:24:43;39.80;;;22.05;;
59786;SDS011;45672;51.612;5.536;2024-02-28T02:27:09;37.15;;;22.13;;
59786;SDS011;45672;51.612;5.536;2024-02-28T02:29:34;33.20;;;20.63;;
59786;SDS011;45672;51.612;5.536;2024-02-28T02:31:59;35.92;;;22.10;;
59786;SDS011;45672;51.612;5.536;2024-02-28T02:34:24;37.22;;;21.55;;
59786;SDS011;45672;51.612;5.536;2024-02-28T02:36:50;36.03;;;20.80;;
59786;SDS011;45672;51.612;5.536;2024-02-28T02:39:15;35.55;;;21.20;;
59786;SDS011;45672;51.612;5.536;2024-02-28T02:41:40;34.42;;;21.35;;
59786;SDS011;45672;51.612;5.536;2024-02-28T02:44:07;37.95;;;21.75;;
59786;SDS011;45672;51.612;5.536;2024-02-28T02:46:34;37.70;;;20.70;;
59786;SDS011;45672;51.612;5.536;2024-02-28T02:48:59;35.65;;;20.77;;
59786;SDS011;45672;51.612;5.536;2024-02-28T02:51:24;36.33;;;21.60;;
59786;SDS011;45672;51.612;5.536;2024-02-28T02:53:50;37.75;;;21.25;;
59786;SDS011;45672;51.612;5.536;2024-02-28T02:56:16;33.85;;;20.42;;
59786;SDS011;45672;51.612;5.536;2024-02-28T02:58:41;33.83;;;20.98;;
59786;SDS011;45672;51.612;5.536;2024-02-28T03:01:06;35.85;;;21.58;;
59786;SDS011;45672;51.612;5.536;2024-02-28T03:03:33;30.58;;;20.23;;
59786;SDS011;45672;51.612;5.536;2024-02-28T03:05:59;33.10;;;20.42;;
59786;SDS011;45672;51.612;5.536;2024-02-28T03:08:24;33.70;;;20.27;;
59786;SDS011;45672;51.612;5.536;2024-02-28T03:10:50;36.20;;;20.50;;
59786;SDS011;45672;51.612;5.536;2024-02-28T03:13:15;34.15;;;20.33;;
59786;SDS011;45672;51.612;5.536;2024-02-28T03:15:40;34.08;;;20.48;;
59786;SDS011;45672;51.612;5.536;2024-02-28T03:18:06;35.72;;;21.83;;
59786;SDS011;45672;51.612;5.536;2024-02-28T03:20:31;34.50;;;20.80;;
59786;SDS011;45672;51.612;5.536;2024-02-28T03:22:57;32.97;;;20.67;;
59786;SDS011;45672;51.612;5.536;2024-02-28T03:25:22;32.58;;;20.90;;
59786;SDS011;45672;51.612;5.536;2024-02-28T03:27:47;33.65;;;19.63;;
59786;SDS011;45672;51.612;5.536;2024-02-28T03:30:12;31.30;;;20.02;;
59786;SDS011;45672;51.612;5.536;2024-02-28T03:32:38;29.77;;;19.85;;
59786;SDS011;45672;51.612;5.536;2024-02-28T03:35:03;32.53;;;19.63;;
59786;SDS011;45672;51.612;5.536;2024-02-28T03:37:30;35.03;;;20.38;;
59786;SDS011;45672;51.612;5.536;2024-02-28T03:39:56;32.15;;;20.25;;
59786;SDS011;45672;51.612;5.536;2024-02-28T03:42:21;30.67;;;19.70;;
59786;SDS011;45672;51.612;5.536;2024-02-28T03:44:47;31.77;;;20.40;;
59786;SDS011;45672;51.612;5.536;2024-02-28T03:47:12;29.52;;;19.63;;
59786;SDS011;45672;51.612;5.536;2024-02-28T03:49:37;32.40;;;20.77;;
59786;SDS011;45672;51.612;5.536;2024-02-28T03:52:03;32.05;;;20.05;;
59786;SDS011;45672;51.612;5.536;2024-02-28T03:54:31;30.02;;;19.23;;
59786;SDS011;45672;51.612;5.536;2024-02-28T03:56:56;33.28;;;20.75;;
59786;SDS011;45672;51.612;5.536;2024-02-28T03:59:21;33.50;;;21.45;;
59786;SDS011;45672;51.612;5.536;2024-02-28T04:01:47;33.75;;;20.95;;
59786;SDS011;45672;51.612;5.536;2024-02-28T04:04:12;28.75;;;19.75;;
59786;SDS011;45672;51.612;5.536;2024-02-28T04:06:37;29.52;;;19.50;;
59786;SDS011;45672;51.612;5.536;2024-02-28T04:09:04;31.58;;;20.92;;
59786;SDS011;45672;51.612;5.536;2024-02-28T04:11:29;31.48;;;20.13;;
59786;SDS011;45672;51.612;5.536;2024-02-28T04:13:54;30.40;;;20.17;;
59786;SDS011;45672;51.612;5.536;2024-02-28T04:16:20;33.45;;;20.20;;
59786;SDS011;45672;51.612;5.536;2024-02-28T04:18:45;31.45;;;21.13;;
59786;SDS011;45672;51.612;5.536;2024-02-28T04:21:10;38.47;;;21.20;;
59786;SDS011;45672;51.612;5.536;2024-02-28T04:23:36;32.85;;;20.98;;
59786;SDS011;45672;51.612;5.536;2024-02-28T04:26:03;35.50;;;22.30;;
59786;SDS011;45672;51.612;5.536;2024-02-28T04:28:28;35.85;;;22.02;;
59786;SDS011;45672;51.612;5.536;2024-02-28T04:30:53;34.33;;;22.38;;
59786;SDS011;45672;51.612;5.536;2024-02-28T04:33:19;36.92;;;22.35;;
59786;SDS011;45672;51.612;5.536;2024-02-28T04:35:44;35.28;;;22.55;;
59786;SDS011;45672;51.612;5.536;2024-02-28T04:38:10;34.50;;;21.85;;
59786;SDS011;45672;51.612;5.536;2024-02-28T04:40:35;32.55;;;21.30;;
59786;SDS011;45672;51.612;5.536;2024-02-28T04:43:01;37.80;;;22.17;;
59786;SDS011;45672;51.612;5.536;2024-02-28T04:45:27;32.08;;;22.05;;
59786;SDS011;45672;51.612;5.536;2024-02-28T04:47:52;34.85;;;23.35;;
59786;SDS011;45672;51.612;5.536;2024-02-28T04:50:19;40.90;;;23.05;;
59786;SDS011;45672;51.612;5.536;2024-02-28T04:52:44;37.95;;;23.85;;
59786;SDS011;45672;51.612;5.536;2024-02-28T04:55:09;36.15;;;21.58;;
59786;SDS011;45672;51.612;5.536;2024-02-28T04:57:35;38.55;;;21.92;;
59786;SDS011;45672;51.612;5.536;2024-02-28T05:00:00;35.00;;;21.88;;
59786;SDS011;45672;51.612;5.536;2024-02-28T05:02:25;33.05;;;21.30;;
59786;SDS011;45672;51.612;5.536;2024-02-28T05:04:51;35.40;;;22.00;;
59786;SDS011;45672;51.612;5.536;2024-02-28T05:07:16;34.33;;;21.55;;
59786;SDS011;45672;51.612;5.536;2024-02-28T05:09:42;38.10;;;23.02;;
59786;SDS011;45672;51.612;5.536;2024-02-28T05:12:07;37.97;;;21.90;;
59786;SDS011;45672;51.612;5.536;2024-02-28T05:14:33;41.45;;;22.83;;
59786;SDS011;45672;51.612;5.536;2024-02-28T05:16:58;37.47;;;22.90;;
59786;SDS011;45672;51.612;5.536;2024-02-28T05:19:23;43.13;;;23.70;;
59786;SDS011;45672;51.612;5.536;2024-02-28T05:21:49;36.72;;;22.52;;
59786;SDS011;45672;51.612;5.536;2024-02-28T05:24:14;39.15;;;23.35;;
59786;SDS011;45672;51.612;5.536;2024-02-28T05:26:40;41.22;;;24.02;;
59786;SDS011;45672;51.612;5.536;2024-02-28T05:29:05;38.40;;;22.42;;
59786;SDS011;45672;51.612;5.536;2024-02-28T05:31:31;36.88;;;23.25;;
59786;SDS011;45672;51.612;5.536;2024-02-28T05:33:57;38.55;;;22.70;;
59786;SDS011;45672;51.612;5.536;2024-02-28T05:36:23;41.20;;;23.30;;
59786;SDS011;45672;51.612;5.536;2024-02-28T05:38:50;34.28;;;22.02;;
59786;SDS011;45672;51.612;5.536;2024-02-28T05:41:16;40.20;;;23.40;;
59786;SDS011;45672;51.612;5.536;2024-02-28T05:43:44;43.13;;;23.58;;
59786;SDS011;45672;51.612;5.536;2024-02-28T05:46:13;42.75;;;24.08;;
59786;SDS011;45672;51.612;5.536;2024-02-28T05:48:40;44.50;;;23.98;;
59786;SDS011;45672;51.612;5.536;2024-02-28T05:51:06;41.28;;;23.50;;
59786;SDS011;45672;51.612;5.536;2024-02-28T05:53:31;45.25;;;24.63;;
59786;SDS011;45672;51.612;5.536;2024-02-28T05:56:06;38.78;;;24.05;;
59786;SDS011;45672;51.612;5.536;2024-02-28T05:58:39;38.95;;;23.40;;
59786;SDS011;45672;51.612;5.536;2024-02-28T06:01:16;45.08;;;24.75;;
59786;SDS011;45672;51.612;5.536;2024-02-28T06:03:42;44.00;;;24.73;;
59786;SDS011;45672;51.612;5.536;2024-02-28T06:06:10;39.53;;;24.40;;
59786;SDS011;45672;51.612;5.536;2024-02-28T06:08:37;40.75;;;24.67;;
59786;SDS011;45672;51.612;5.536;2024-02-28T06:11:03;42.88;;;24.77;;
59786;SDS011;45672;51.612;5.536;2024-02-28T06:13:29;46.55;;;25.48;;
59786;SDS011;45672;51.612;5.536;2024-02-28T06:15:54;45.78;;;25.30;;
59786;SDS011;45672;51.612;5.536;2024-02-28T06:18:20;46.83;;;26.73;;
59786;SDS011;45672;51.612;5.536;2024-02-28T06:20:47;52.65;;;27.02;;
59786;SDS011;45672;51.612;5.536;2024-02-28T06:23:13;48.95;;;27.15;;
59786;SDS011;45672;51.612;5.536;2024-02-28T06:25:38;46.05;;;25.65;;
59786;SDS011;45672;51.612;5.536;2024-02-28T06:28:04;48.65;;;26.75;;
59786;SDS011;45672;51.612;5.536;2024-02-28T06:30:31;51.80;;;26.58;;
59786;SDS011;45672;51.612;5.536;2024-02-28T06:33:00;51.55;;;27.02;;
59786;SDS011;45672;51.612;5.536;2024-02-28T06:35:25;48.92;;;26.95;;
59786;SDS011;45672;51.612;5.536;2024-02-28T06:37:50;47.63;;;25.88;;
59786;SDS011;45672;51.612;5.536;2024-02-28T06:40:16;55.42;;;26.75;;
59786;SDS011;45672;51.612;5.536;2024-02-28T06:42:42;49.17;;;26.20;;
59786;SDS011;45672;51.612;5.536;2024-02-28T06:45:07;46.60;;;27.33;;
59786;SDS011;45672;51.612;5.536;2024-02-28T06:47:33;55.13;;;27.00;;
59786;SDS011;45672;51.612;5.536;2024-02-28T06:49:59;53.72;;;26.38;;
59786;SDS011;45672;51.612;5.536;2024-02-28T06:52:24;46.75;;;26.45;;
59786;SDS011;45672;51.612;5.536;2024-02-28T06:54:50;54.38;;;27.48;;
59786;SDS011;45672;51.612;5.536;2024-02-28T06:57:16;52.45;;;25.30;;
59786;SDS011;45672;51.612;5.536;2024-02-28T06:59:41;54.10;;;26.58;;
59786;SDS011;45672;51.612;5.536;2024-02-28T07:02:07;47.05;;;26.00;;
59786;SDS011;45672;51.612;5.536;2024-02-28T07:04:32;50.13;;;25.90;;
59786;SDS011;45672;51.612;5.536;2024-02-28T07:06:57;47.65;;;26.50;;
59786;SDS011;45672;51.612;5.536;2024-02-28T07:09:22;50.35;;;26.80;;
59786;SDS011;45672;51.612;5.536;2024-02-28T07:11:51;62.70;;;27.65;;
59786;SDS011;45672;51.612;5.536;2024-02-28T07:14:16;46.80;;;25.00;;
59786;SDS011;45672;51.612;5.536;2024-02-28T07:16:41;44.78;;;25.42;;
59786;SDS011;45672;51.612;5.536;2024-02-28T07:19:07;48.05;;;26.05;;
59786;SDS011;45672;51.612;5.536;2024-02-28T07:21:32;44.35;;;26.42;;
59786;SDS011;45672;51.612;5.536;2024-02-28T07:23:58;45.13;;;25.50;;
59786;SDS011;45672;51.612;5.536;2024-02-28T07:26:23;44.28;;;25.25;;
59786;SDS011;45672;51.612;5.536;2024-02-28T07:28:49;48.08;;;26.25;;
59786;SDS011;45672;51.612;5.536;2024-02-28T07:31:16;44.47;;;25.80;;
59786;SDS011;45672;51.612;5.536;2024-02-28T07:33:42;47.25;;;26.48;;
59786;SDS011;45672;51.612;5.536;2024-02-28T07:36:08;45.60;;;25.70;;
59786;SDS011;45672;51.612;5.536;2024-02-28T07:38:33;38.80;;;23.65;;
59786;SDS011;45672;51.612;5.536;2024-02-28T07:40:59;42.40;;;24.88;;
59786;SDS011;45672;51.612;5.536;2024-02-28T07:43:24;47.95;;;25.50;;
59786;SDS011;45672;51.612;5.536;2024-02-28T07:45:50;40.55;;;24.40;;
59786;SDS011;45672;51.612;5.536;2024-02-28T07:48:15;41.95;;;25.23;;
59786;SDS011;45672;51.612;5.536;2024-02-28T07:50:42;45.00;;;24.58;;
59786;SDS011;45672;51.612;5.536;2024-02-28T07:53:10;47.17;;;25.83;;
59786;SDS011;45672;51.612;5.536;2024-02-28T07:55:37;42.33;;;25.80;;
59786;SDS011;45672;51.612;5.536;2024-02-28T07:58:03;40.80;;;24.90;;
59786;SDS011;45672;51.612;5.536;2024-02-28T08:00:30;42.88;;;25.05;;
59786;SDS011;45672;51.612;5.536;2024-02-28T08:02:58;39.25;;;24.10;;
59786;SDS011;45672;51.612;5.536;2024-02-28T08:05:23;41.30;;;25.08;;
59786;SDS011;45672;51.612;5.536;2024-02-28T08:07:49;38.97;;;24.88;;
59786;SDS011;45672;51.612;5.536;2024-02-28T08:10:14;42.72;;;26.13;;
59786;SDS011;45672;51.612;5.536;2024-02-28T08:12:39;39.15;;;25.23;;
59786;SDS011;45672;51.612;5.536;2024-02-28T08:15:05;38.00;;;24.90;;
59786;SDS011;45672;51.612;5.536;2024-02-28T08:17:30;42.20;;;25.58;;
59786;SDS011;45672;51.612;5.536;2024-02-28T08:19:56;60.67;;;32.65;;
59786;SDS011;45672;51.612;5.536;2024-02-28T08:22:21;41.90;;;25.05;;
59786;SDS011;45672;51.612;5.536;2024-02-28T08:24:46;41.05;;;24.95;;
59786;SDS011;45672;51.612;5.536;2024-02-28T08:27:12;44.50;;;25.65;;
59786;SDS011;45672;51.612;5.536;2024-02-28T08:29:40;40.47;;;25.27;;
59786;SDS011;45672;51.612;5.536;2024-02-28T08:32:08;37.80;;;23.98;;
59786;SDS011;45672;51.612;5.536;2024-02-28T08:34:35;42.55;;;24.23;;
59786;SDS011;45672;51.612;5.536;2024-02-28T08:37:00;34.97;;;21.33;;
59786;SDS011;45672;51.612;5.536;2024-02-28T08:39:25;38.88;;;23.23;;
59786;SDS011;45672;51.612;5.536;2024-02-28T08:41:51;34.13;;;22.83;;
59786;SDS011;45672;51.612;5.536;2024-02-28T08:44:16;34.20;;;22.17;;
59786;SDS011;45672;51.612;5.536;2024-02-28T08:46:41;33.10;;;22.23;;
59786;SDS011;45672;51.612;5.536;2024-02-28T08:49:06;36.40;;;22.02;;
59786;SDS011;45672;51.612;5.536;2024-02-28T08:51:32;36.53;;;21.50;;
59786;SDS011;45672;51.612;5.536;2024-02-28T08:53:57;33.08;;;21.33;;
59786;SDS011;45672;51.612;5.536;2024-02-28T08:56:24;37.13;;;22.35;;
59786;SDS011;45672;51.612;5.536;2024-02-28T08:58:50;35.95;;;22.27;;
59786;SDS011;45672;51.612;5.536;2024-02-28T09:01:15;33.53;;;21.08;;
59786;SDS011;45672;51.612;5.536;2024-02-28T09:03:41;36.28;;;21.70;;
59786;SDS011;45672;51.612;5.536;2024-02-28T09:06:06;36.15;;;23.60;;
59786;SDS011;45672;51.612;5.536;2024-02-28T09:08:32;32.88;;;21.92;;
59786;SDS011;45672;51.612;5.536;2024-02-28T09:10:57;34.85;;;21.35;;
59786;SDS011;45672;51.612;5.536;2024-02-28T09:13:23;35.72;;;22.83;;
59786;SDS011;45672;51.612;5.536;2024-02-28T09:15:48;32.35;;;21.42;;
59786;SDS011;45672;51.612;5.536;2024-02-28T09:18:14;34.10;;;22.23;;
59786;SDS011;45672;51.612;5.536;2024-02-28T09:20:41;36.08;;;22.83;;
59786;SDS011;45672;51.612;5.536;2024-02-28T09:23:06;33.08;;;22.35;;
59786;SDS011;45672;51.612;5.536;2024-02-28T09:25:32;32.22;;;21.77;;
59786;SDS011;45672;51.612;5.536;2024-02-28T09:27:58;32.58;;;22.90;;
59786;SDS011;45672;51.612;5.536;2024-02-28T09:30:25;32.97;;;20.45;;
59786;SDS011;45672;51.612;5.536;2024-02-28T09:32:50;40.60;;;21.67;;
59786;SDS011;45672;51.612;5.536;2024-02-28T09:35:15;32.95;;;20.52;;
59786;SDS011;45672;51.612;5.536;2024-02-28T09:37:41;32.83;;;20.80;;
59786;SDS011;45672;51.612;5.536;2024-02-28T09:40:08;29.35;;;18.88;;
59786;SDS011;45672;51.612;5.536;2024-02-28T09:42:34;29.95;;;19.30;;
59786;SDS011;45672;51.612;5.536;2024-02-28T09:45:00;31.90;;;19.27;;
59786;SDS011;45672;51.612;5.536;2024-02-28T09:47:28;28.08;;;18.65;;
59786;SDS011;45672;51.612;5.536;2024-02-28T09:49:54;32.00;;;18.75;;
59786;SDS011;45672;51.612;5.536;2024-02-28T09:52:24;25.90;;;18.13;;
59786;SDS011;45672;51.612;5.536;2024-02-28T09:54:49;27.92;;;18.90;;
59786;SDS011;45672;51.612;5.536;2024-02-28T09:57:15;29.48;;;18.50;;
59786;SDS011;45672;51.612;5.536;2024-02-28T09:59:41;29.92;;;18.92;;
59786;SDS011;45672;51.612;5.536;2024-02-28T10:02:07;34.17;;;19.10;;
59786;SDS011;45672;51.612;5.536;2024-02-28T10:04:35;29.48;;;18.85;;
59786;SDS011;45672;51.612;5.536;2024-02-28T10:07:11;28.05;;;18.15;;
59786;SDS011;45672;51.612;5.536;2024-02-28T10:09:38;27.42;;;18.75;;
59786;SDS011;45672;51.612;5.536;2024-02-28T10:12:03;32.45;;;19.35;;
59786;SDS011;45672;51.612;5.536;2024-02-28T10:14:29;30.17;;;18.25;;
59786;SDS011;45672;51.612;5.536;2024-02-28T10:16:55;33.90;;;20.13;;
59786;SDS011;45672;51.612;5.536;2024-02-28T10:19:20;28.20;;;18.92;;
59786;SDS011;45672;51.612;5.536;2024-02-28T10:21:46;38.17;;;19.85;;
59786;SDS011;45672;51.612;5.536;2024-02-28T10:24:11;30.58;;;19.25;;
59786;SDS011;45672;51.612;5.536;2024-02-28T10:26:41;30.17;;;19.80;;
59786;SDS011;45672;51.612;5.536;2024-02-28T10:29:13;32.10;;;19.17;;
59786;SDS011;45672;51.612;5.536;2024-02-28T10:31:38;32.65;;;19.85;;
59786;SDS011;45672;51.612;5.536;2024-02-28T10:34:04;31.73;;;20.05;;
59786;SDS011;45672;51.612;5.536;2024-02-28T10:36:32;33.67;;;21.20;;
59786;SDS011;45672;51.612;5.536;2024-02-28T10:38:57;28.42;;;19.02;;
59786;SDS011;45672;51.612;5.536;2024-02-28T10:41:25;30.02;;;19.33;;
59786;SDS011;45672;51.612;5.536;2024-02-28T10:43:51;29.05;;;18.52;;
59786;SDS011;45672;51.612;5.536;2024-02-28T10:46:18;33.03;;;21.50;;
59786;SDS011;45672;51.612;5.536;2024-02-28T10:48:45;30.00;;;20.40;;
59786;SDS011;45672;51.612;5.536;2024-02-28T10:51:11;29.30;;;20.05;;
59786;SDS011;45672;51.612;5.536;2024-02-28T10:53:41;32.80;;;20.38;;
59786;SDS011;45672;51.612;5.536;2024-02-28T10:56:09;31.55;;;19.98;;
59786;SDS011;45672;51.612;5.536;2024-02-28T10:58:36;31.65;;;20.05;;
59786;SDS011;45672;51.612;5.536;2024-02-28T11:01:04;29.10;;;20.33;;
59786;SDS011;45672;51.612;5.536;2024-02-28T11:03:30;32.65;;;20.38;;
59786;SDS011;45672;51.612;5.536;2024-02-28T11:05:56;35.90;;;20.73;;
59786;SDS011;45672;51.612;5.536;2024-02-28T11:08:22;28.30;;;18.75;;
59786;SDS011;45672;51.612;5.536;2024-02-28T11:10:55;30.50;;;19.08;;
59786;SDS011;45672;51.612;5.536;2024-02-28T11:13:24;28.75;;;18.63;;
59786;SDS011;45672;51.612;5.536;2024-02-28T11:15:51;38.03;;;19.63;;
59786;SDS011;45672;51.612;5.536;2024-02-28T11:18:17;29.80;;;19.75;;
59786;SDS011;45672;51.612;5.536;2024-02-28T11:20:43;33.10;;;19.42;;
59786;SDS011;45672;51.612;5.536;2024-02-28T11:23:11;42.03;;;20.70;;
59786;SDS011;45672;51.612;5.536;2024-02-28T11:25:36;34.10;;;20.60;;
59786;SDS011;45672;51.612;5.536;2024-02-28T11:28:01;33.25;;;19.90;;
59786;SDS011;45672;51.612;5.536;2024-02-28T11:30:27;31.73;;;19.48;;
59786;SDS011;45672;51.612;5.536;2024-02-28T11:32:53;31.08;;;18.35;;
59786;SDS011;45672;51.612;5.536;2024-02-28T11:35:19;29.35;;;18.80;;
59786;SDS011;45672;51.612;5.536;2024-02-28T11:37:45;31.10;;;18.98;;
59786;SDS011;45672;51.612;5.536;2024-02-28T11:40:12;29.23;;;18.10;;
59786;SDS011;45672;51.612;5.536;2024-02-28T11:42:37;28.75;;;16.52;;
59786;SDS011;45672;51.612;5.536;2024-02-28T11:45:04;24.67;;;16.50;;
59786;SDS011;45672;51.612;5.536;2024-02-28T11:47:31;32.58;;;18.20;;
59786;SDS011;45672;51.612;5.536;2024-02-28T11:50:00;28.23;;;16.55;;
59786;SDS011;45672;51.612;5.536;2024-02-28T11:52:27;32.25;;;17.10;;
59786;SDS011;45672;51.612;5.536;2024-02-28T11:54:55;29.52;;;16.48;;
59786;SDS011;45672;51.612;5.536;2024-02-28T11:57:20;26.08;;;15.55;;
59786;SDS011;45672;51.612;5.536;2024-02-28T11:59:46;22.52;;;15.82;;
59786;SDS011;45672;51.612;5.536;2024-02-28T12:02:12;20.60;;;15.23;;
59786;SDS011;45672;51.612;5.536;2024-02-28T12:04:38;21.42;;;15.35;;
59786;SDS011;45672;51.612;5.536;2024-02-28T12:07:04;23.63;;;16.27;;
59786;SDS011;45672;51.612;5.536;2024-02-28T12:09:30;23.40;;;15.82;;
59786;SDS011;45672;51.612;5.536;2024-02-28T12:11:55;21.23;;;15.40;;
59786;SDS011;45672;51.612;5.536;2024-02-28T12:14:20;26.95;;;15.65;;
59786;SDS011;45672;51.612;5.536;2024-02-28T12:16:46;23.23;;;16.50;;
59786;SDS011;45672;51.612;5.536;2024-02-28T12:19:13;24.27;;;16.38;;
59786;SDS011;45672;51.612;5.536;2024-02-28T12:21:40;23.13;;;15.07;;
59786;SDS011;45672;51.612;5.536;2024-02-28T12:24:09;24.00;;;15.55;;
59786;SDS011;45672;51.612;5.536;2024-02-28T12:26:36;23.75;;;15.32;;
59786;SDS011;45672;51.612;5.536;2024-02-28T12:29:02;23.70;;;15.25;;
59786;SDS011;45672;51.612;5.536;2024-02-28T12:31:27;21.85;;;15.10;;
59786;SDS011;45672;51.612;5.536;2024-02-28T12:33:53;26.80;;;14.43;;
59786;SDS011;45672;51.612;5.536;2024-02-28T12:36:19;20.35;;;12.68;;
59786;SDS011;45672;51.612;5.536;2024-02-28T12:38:45;17.45;;;12.25;;
59786;SDS011;45672;51.612;5.536;2024-02-28T12:41:11;18.42;;;12.70;;
59786;SDS011;45672;51.612;5.536;2024-02-28T12:43:36;16.58;;;11.93;;
59786;SDS011;45672;51.612;5.536;2024-02-28T12:46:01;16.48;;;10.73;;
59786;SDS011;45672;51.612;5.536;2024-02-28T12:48:27;14.27;;;11.23;;
59786;SDS011;45672;51.612;5.536;2024-02-28T12:50:54;17.42;;;10.63;;
59786;SDS011;45672;51.612;5.536;2024-02-28T12:53:19;16.55;;;10.07;;
59786;SDS011;45672;51.612;5.536;2024-02-28T12:55:45;13.38;;;10.70;;
59786;SDS011;45672;51.612;5.536;2024-02-28T12:58:10;15.43;;;10.82;;
59786;SDS011;45672;51.612;5.536;2024-02-28T13:00:36;15.85;;;11.95;;
59786;SDS011;45672;51.612;5.536;2024-02-28T13:03:01;17.95;;;11.90;;
59786;SDS011;45672;51.612;5.536;2024-02-28T13:05:28;20.08;;;12.77;;
59786;SDS011;45672;51.612;5.536;2024-02-28T13:07:53;18.77;;;12.90;;
59786;SDS011;45672;51.612;5.536;2024-02-28T13:10:19;14.50;;;10.40;;
59786;SDS011;45672;51.612;5.536;2024-02-28T13:12:44;18.73;;;11.13;;
59786;SDS011;45672;51.612;5.536;2024-02-28T13:15:09;13.68;;;10.07;;
59786;SDS011;45672;51.612;5.536;2024-02-28T13:17:35;15.73;;;11.35;;
59786;SDS011;45672;51.612;5.536;2024-02-28T13:20:00;17.40;;;11.57;;
59786;SDS011;45672;51.612;5.536;2024-02-28T13:22:26;20.00;;;13.30;;
59786;SDS011;45672;51.612;5.536;2024-02-28T13:24:51;18.05;;;13.10;;
59786;SDS011;45672;51.612;5.536;2024-02-28T13:27:16;21.02;;;12.45;;
59786;SDS011;45672;51.612;5.536;2024-02-28T13:29:42;28.73;;;14.60;;
59786;SDS011;45672;51.612;5.536;2024-02-28T13:32:07;22.63;;;15.52;;
59786;SDS011;45672;51.612;5.536;2024-02-28T13:34:33;20.45;;;13.43;;
59786;SDS011;45672;51.612;5.536;2024-02-28T13:36:58;21.13;;;12.90;;
59786;SDS011;45672;51.612;5.536;2024-02-28T13:39:23;22.77;;;14.18;;
59786;SDS011;45672;51.612;5.536;2024-02-28T13:41:52;19.50;;;12.40;;
59786;SDS011;45672;51.612;5.536;2024-02-28T13:44:18;17.73;;;13.38;;
59786;SDS011;45672;51.612;5.536;2024-02-28T13:46:46;20.50;;;13.35;;
59786;SDS011;45672;51.612;5.536;2024-02-28T13:49:12;17.55;;;13.10;;
59786;SDS011;45672;51.612;5.536;2024-02-28T13:51:38;22.38;;;13.80;;
59786;SDS011;45672;51.612;5.536;2024-02-28T13:54:04;19.05;;;13.32;;
59786;SDS011;45672;51.612;5.536;2024-02-28T13:56:30;17.88;;;13.25;;
59786;SDS011;45672;51.612;5.536;2024-02-28T13:58:56;21.45;;;14.02;;
59786;SDS011;45672;51.612;5.536;2024-02-28T14:01:21;21.33;;;13.10;;
59786;SDS011;45672;51.612;5.536;2024-02-28T14:03:47;22.20;;;14.50;;
59786;SDS011;45672;51.612;5.536;2024-02-28T14:06:12;21.98;;;14.20;;
59786;SDS011;45672;51.612;5.536;2024-02-28T14:08:38;21.70;;;14.50;;
59786;SDS011;45672;51.612;5.536;2024-02-28T14:11:04;20.55;;;13.95;;
59786;SDS011;45672;51.612;5.536;2024-02-28T14:13:29;24.95;;;16.23;;